createdAt,value
2017-11-25T00:00:56.723Z,11.82
2017-11-25T00:03:26.032Z,13.88
2017-11-25T00:05:55.431Z,14.00
2017-11-25T00:08:24.736Z,13.50
2017-11-25T00:10:54.948Z,12.73
2017-11-25T00:13:24.351Z,14.15
2017-11-25T00:15:54.453Z,16.10
2017-11-25T00:18:23.667Z,17.90
2017-11-25T00:20:52.844Z,16.80
2017-11-25T00:23:22.862Z,16.62
2017-11-25T00:25:51.978Z,17.17
2017-11-25T00:28:22.032Z,17.00
2017-11-25T00:30:51.193Z,17.50
2017-11-25T00:33:20.387Z,18.35
2017-11-25T00:35:50.719Z,20.23
2017-11-25T00:38:19.933Z,20.15
2017-11-25T00:40:49.058Z,22.40
2017-11-25T00:43:18.283Z,23.85
2017-11-25T00:45:47.432Z,22.73
2017-11-25T00:48:17.348Z,24.98
2017-11-25T00:50:46.540Z,24.25
2017-11-25T00:53:15.894Z,23.80
2017-11-25T00:55:45.706Z,22.58
2017-11-25T00:58:15.564Z,22.52
2017-11-25T01:00:44.799Z,24.48
2017-11-25T01:03:13.934Z,24.75
2017-11-25T01:05:43.972Z,22.85
2017-11-25T01:08:13.157Z,24.20
2017-11-25T01:10:42.358Z,24.20
2017-11-25T01:13:11.867Z,23.55
2017-11-25T01:15:40.988Z,26.85
2017-11-25T01:18:10.162Z,23.40
2017-11-25T01:20:39.345Z,23.85
2017-11-25T01:23:09.331Z,22.75
2017-11-25T01:25:38.609Z,22.23
2017-11-25T01:28:08.764Z,24.05
2017-11-25T01:30:37.962Z,22.80
2017-11-25T01:33:07.064Z,24.80
2017-11-25T01:35:36.296Z,22.13
2017-11-25T01:38:06.248Z,25.55
2017-11-25T01:40:35.405Z,23.90
2017-11-25T01:43:04.590Z,23.95
2017-11-25T01:45:33.704Z,24.30
2017-11-25T01:48:03.639Z,22.92
2017-11-25T01:50:32.916Z,22.92
2017-11-25T01:53:02.178Z,23.70
2017-11-25T01:55:31.397Z,23.58
2017-11-25T01:58:00.829Z,24.02
2017-11-25T02:00:30.225Z,23.10
2017-11-25T02:02:59.418Z,23.77
2017-11-25T02:05:29.628Z,23.05
2017-11-25T02:07:58.846Z,26.50
2017-11-25T02:10:28.148Z,23.73
2017-11-25T02:12:58.482Z,25.42
2017-11-25T02:15:27.901Z,23.23
2017-11-25T02:17:57.221Z,25.85
2017-11-25T02:20:26.934Z,26.98
2017-11-25T02:22:56.166Z,24.65
2017-11-25T02:25:25.808Z,26.55
2017-11-25T02:27:55.235Z,24.60
2017-11-25T02:30:24.494Z,24.70
2017-11-25T02:32:53.731Z,25.30
2017-11-25T02:35:23.347Z,23.67
2017-11-25T02:37:52.588Z,22.48
2017-11-25T02:40:21.900Z,26.20
2017-11-25T02:42:51.146Z,25.52
2017-11-25T02:45:20.385Z,26.40
2017-11-25T02:47:49.548Z,24.85
2017-11-25T02:50:19.039Z,25.17
2017-11-25T02:52:48.193Z,25.70
2017-11-25T02:55:17.413Z,29.30
2017-11-25T02:57:46.686Z,29.60
2017-11-25T03:00:16.758Z,27.05
2017-11-25T03:02:45.904Z,26.77
2017-11-25T03:05:15.897Z,27.80
2017-11-25T03:07:45.523Z,26.10
2017-11-25T03:10:15.570Z,28.92
2017-11-25T03:12:44.843Z,27.25
2017-11-25T03:15:14.058Z,28.45
2017-11-25T03:17:43.211Z,29.63
2017-11-25T03:20:12.352Z,28.10
2017-11-25T03:22:41.689Z,29.52
2017-11-25T03:25:10.830Z,28.02
2017-11-25T03:27:40.999Z,27.55
2017-11-25T03:30:10.166Z,27.15
2017-11-25T03:32:39.354Z,23.73
2017-11-25T03:35:08.572Z,26.92
2017-11-25T03:37:37.746Z,26.75
2017-11-25T03:40:06.938Z,28.12
2017-11-25T03:42:37.545Z,28.33
2017-11-25T03:45:06.639Z,27.15
2017-11-25T03:47:35.798Z,26.65
2017-11-25T03:50:05.724Z,27.75
2017-11-25T03:52:35.636Z,29.70
2017-11-25T03:55:04.815Z,28.67
2017-11-25T03:57:33.983Z,28.20
2017-11-25T04:00:03.321Z,29.00
2017-11-25T04:02:32.477Z,28.10
2017-11-25T04:05:01.766Z,28.60
2017-11-25T04:07:30.981Z,27.60
2017-11-25T04:10:00.181Z,26.17
2017-11-25T04:12:29.414Z,27.62
2017-11-25T04:14:58.632Z,28.25
2017-11-25T04:17:28.624Z,30.55
2017-11-25T04:19:57.840Z,25.73
2017-11-25T04:22:27.230Z,25.20
2017-11-25T04:24:57.141Z,27.13
2017-11-25T04:27:27.658Z,26.37
2017-11-25T04:29:56.849Z,27.77
2017-11-25T04:32:26.240Z,28.75
2017-11-25T04:34:56.235Z,28.85
2017-11-25T04:37:27.143Z,26.23
2017-11-25T04:39:56.282Z,27.60
2017-11-25T04:42:26.360Z,28.45
2017-11-25T04:47:37.094Z,30.05
2017-11-25T04:50:06.242Z,30.88
2017-11-25T04:52:35.441Z,28.52
2017-11-25T04:55:04.816Z,28.35
2017-11-25T04:57:35.039Z,28.12
2017-11-25T05:00:04.307Z,25.42
2017-11-25T05:02:34.253Z,26.73
2017-11-25T05:05:04.352Z,27.95
2017-11-25T05:07:33.513Z,27.83
2017-11-25T05:10:02.849Z,26.98
2017-11-25T05:12:31.988Z,25.98
2017-11-25T05:15:01.134Z,29.12
2017-11-25T05:17:30.381Z,27.77
2017-11-25T05:19:59.478Z,31.02
2017-11-25T05:22:28.605Z,30.73
2017-11-25T05:24:57.854Z,27.75
2017-11-25T05:27:27.073Z,26.37
2017-11-25T05:29:56.987Z,28.62
2017-11-25T05:32:26.496Z,28.40
2017-11-25T05:34:56.614Z,29.08
2017-11-25T05:37:25.756Z,30.00
2017-11-25T05:39:55.825Z,29.83
2017-11-25T05:42:25.128Z,30.52
2017-11-25T05:44:54.275Z,29.73
2017-11-25T05:47:23.522Z,30.45
2017-11-25T05:49:53.491Z,29.75
2017-11-25T05:52:22.664Z,31.30
2017-11-25T05:54:52.143Z,31.42
2017-11-25T05:57:21.287Z,28.73
2017-11-25T05:59:50.432Z,31.40
2017-11-25T06:02:19.577Z,29.23
2017-11-25T06:04:48.698Z,26.58
2017-11-25T06:07:17.874Z,30.85
2017-11-25T06:09:47.419Z,28.23
2017-11-25T06:12:16.543Z,28.35
2017-11-25T06:14:45.694Z,30.12
2017-11-25T06:17:15.042Z,29.45
2017-11-25T06:19:44.173Z,29.42
2017-11-25T06:22:13.253Z,31.12
2017-11-25T06:24:43.508Z,29.65
2017-11-25T06:27:12.596Z,26.62
2017-11-25T06:29:41.731Z,28.58
2017-11-25T06:32:10.868Z,32.83
2017-11-25T06:34:39.991Z,31.42
2017-11-25T06:37:09.121Z,32.58
2017-11-25T06:39:38.275Z,32.47
2017-11-25T06:42:08.170Z,31.90
2017-11-25T06:44:37.359Z,29.73
2017-11-25T06:47:06.522Z,29.12
2017-11-25T06:49:35.622Z,25.60
2017-11-25T06:52:04.779Z,27.67
2017-11-25T06:54:34.336Z,31.40
2017-11-25T06:57:04.270Z,26.60
2017-11-25T06:59:33.396Z,28.38
2017-11-25T07:02:02.945Z,25.75
2017-11-25T07:04:33.473Z,27.27
2017-11-25T07:07:03.490Z,26.80
2017-11-25T07:09:32.614Z,27.17
2017-11-25T07:12:02.586Z,29.50
2017-11-25T07:14:32.020Z,25.92
2017-11-25T07:17:01.210Z,26.83
2017-11-25T07:19:30.353Z,26.20
2017-11-25T07:21:59.991Z,24.25
2017-11-25T07:24:29.192Z,24.50
2017-11-25T07:26:58.380Z,25.73
2017-11-25T07:29:27.575Z,25.73
2017-11-25T07:31:56.911Z,28.02
2017-11-25T07:34:26.134Z,25.70
2017-11-25T07:36:55.491Z,26.52
2017-11-25T07:39:24.614Z,25.83
2017-11-25T07:41:53.804Z,26.10
2017-11-25T07:44:23.333Z,23.75
2017-11-25T07:46:53.334Z,24.67
2017-11-25T07:49:23.367Z,24.20
2017-11-25T07:51:52.781Z,23.95
2017-11-25T07:54:23.297Z,25.58
2017-11-25T07:56:52.504Z,27.13
2017-11-25T07:59:22.802Z,28.50
2017-11-25T08:01:52.971Z,26.35
2017-11-25T08:04:22.254Z,26.10
2017-11-25T08:06:52.464Z,24.92
2017-11-25T08:09:22.389Z,23.20
2017-11-25T08:11:51.541Z,24.90
2017-11-25T08:14:20.846Z,24.40
2017-11-25T08:16:49.978Z,23.58
2017-11-25T08:19:23.169Z,23.55
2017-11-25T08:21:52.325Z,24.15
2017-11-25T08:24:22.367Z,22.20
2017-11-25T08:26:51.769Z,26.58
2017-11-25T08:29:20.860Z,26.65
2017-11-25T08:31:50.052Z,26.37
2017-11-25T08:34:19.189Z,27.08
2017-11-25T08:36:48.295Z,21.77
2017-11-25T08:39:19.211Z,25.48
2017-11-25T08:41:48.507Z,22.55
2017-11-25T08:44:17.607Z,27.83
2017-11-25T08:46:46.899Z,25.48
2017-11-25T08:49:16.094Z,27.30
2017-11-25T08:51:46.824Z,25.37
2017-11-25T08:54:16.910Z,25.77
2017-11-25T08:56:46.087Z,25.40
2017-11-25T08:59:15.234Z,25.27
2017-11-25T09:01:45.267Z,25.67
2017-11-25T09:04:14.437Z,23.60
2017-11-25T09:06:43.561Z,27.60
2017-11-25T09:09:13.430Z,29.08
2017-11-25T09:11:42.565Z,25.70
2017-11-25T09:14:12.082Z,24.50
2017-11-25T09:16:41.179Z,23.98
2017-11-25T09:19:10.405Z,23.42
2017-11-25T09:21:39.567Z,26.17
2017-11-25T09:24:08.770Z,23.35
2017-11-25T09:26:37.900Z,22.80
2017-11-25T09:29:07.146Z,24.60
2017-11-25T09:31:36.269Z,23.60
2017-11-25T09:34:08.380Z,25.25
2017-11-25T09:36:37.574Z,22.42
2017-11-25T09:39:14.790Z,26.40
2017-11-25T09:41:43.900Z,20.30
2017-11-25T09:44:13.498Z,20.25
2017-11-25T09:46:42.686Z,20.33
2017-11-25T09:49:11.827Z,20.90
2017-11-25T09:51:40.999Z,20.80
2017-11-25T09:54:10.201Z,21.05
2017-11-25T09:56:40.305Z,21.15
2017-11-25T09:59:09.524Z,20.80
2017-11-25T10:01:38.795Z,23.05
2017-11-25T10:04:14.566Z,22.30
2017-11-25T10:06:44.865Z,22.92
2017-11-25T10:09:13.958Z,22.35
2017-11-25T10:11:43.101Z,21.95
2017-11-25T10:14:14.507Z,22.17
2017-11-25T10:16:43.626Z,21.77
2017-11-25T10:19:12.729Z,18.60
2017-11-25T10:21:42.032Z,18.77
2017-11-25T10:24:11.208Z,17.85
2017-11-25T10:26:41.350Z,21.45
2017-11-25T10:29:11.360Z,19.75
2017-11-25T10:31:40.539Z,17.05
2017-11-25T10:34:09.759Z,16.40
2017-11-25T10:36:38.958Z,18.20
2017-11-25T10:39:08.133Z,18.40
2017-11-25T10:41:38.869Z,17.35
2017-11-25T10:44:08.127Z,16.25
2017-11-25T10:46:37.288Z,14.38
2017-11-25T10:49:06.695Z,13.90
2017-11-25T10:51:36.643Z,15.25
2017-11-25T10:54:05.914Z,14.50
2017-11-25T10:56:35.148Z,15.52
2017-11-25T10:59:04.462Z,16.85
2017-11-25T11:01:33.809Z,15.88
2017-11-25T11:04:03.015Z,15.07
2017-11-25T11:06:32.338Z,14.52
2017-11-25T11:09:01.481Z,15.30
2017-11-25T11:11:30.683Z,16.45
2017-11-25T11:14:00.090Z,12.85
2017-11-25T11:16:29.385Z,13.48
2017-11-25T11:18:58.583Z,15.50
2017-11-25T11:21:27.970Z,15.43
2017-11-25T11:23:57.230Z,15.77
2017-11-25T11:26:27.303Z,15.77
2017-11-25T11:28:56.945Z,16.37
2017-11-25T11:31:28.241Z,15.32
2017-11-25T11:33:58.100Z,16.55
2017-11-25T11:36:27.522Z,18.05
2017-11-25T11:38:56.914Z,18.17
2017-11-25T11:41:27.082Z,17.25
2017-11-25T11:43:56.349Z,17.30
2017-11-25T11:46:25.543Z,17.55
2017-11-25T11:48:54.929Z,14.63
2017-11-25T11:51:24.947Z,14.32
2017-11-25T11:53:54.145Z,16.00
2017-11-25T11:56:23.472Z,14.75
2017-11-25T11:58:52.900Z,14.00
2017-11-25T12:01:22.556Z,14.85
2017-11-25T12:03:52.185Z,17.10
2017-11-25T12:06:21.492Z,17.45
2017-11-25T12:08:50.722Z,16.75
2017-11-25T12:11:20.704Z,13.98
2017-11-25T12:13:49.872Z,16.15
2017-11-25T12:16:18.999Z,14.20
2017-11-25T12:18:49.068Z,17.23
2017-11-25T12:21:18.969Z,14.57
2017-11-25T12:23:48.944Z,14.68
2017-11-25T12:26:20.025Z,15.05
2017-11-25T12:28:49.162Z,16.60
2017-11-25T12:31:18.947Z,13.57
2017-11-25T12:33:49.855Z,16.40
2017-11-25T12:36:19.820Z,16.00
2017-11-25T12:38:49.039Z,13.75
2017-11-25T12:41:19.784Z,13.82
2017-11-25T12:43:49.839Z,15.50
2017-11-25T12:46:19.783Z,14.57
2017-11-25T12:48:49.741Z,15.05
2017-11-25T12:51:18.993Z,13.00
2017-11-25T12:53:48.151Z,13.15
2017-11-25T12:56:17.445Z,12.75
2017-11-25T12:58:46.944Z,13.00
2017-11-25T13:01:16.636Z,14.60
2017-11-25T13:03:45.784Z,13.82
2017-11-25T13:06:15.057Z,12.80
2017-11-25T13:08:44.662Z,13.10
2017-11-25T13:11:13.855Z,12.18
2017-11-25T13:13:43.030Z,11.75
2017-11-25T13:16:12.335Z,16.25
2017-11-25T13:18:42.892Z,13.25
2017-11-25T13:21:12.116Z,15.18
2017-11-25T13:23:42.103Z,15.10
2017-11-25T13:26:11.301Z,15.95
2017-11-25T13:28:40.500Z,11.90
2017-11-25T13:31:10.619Z,12.98
2017-11-25T13:33:40.119Z,12.93
2017-11-25T13:36:09.233Z,13.68
2017-11-25T13:38:38.393Z,11.23
2017-11-25T13:41:07.570Z,12.15
2017-11-25T13:43:37.465Z,12.10
2017-11-25T13:46:07.502Z,13.32
2017-11-25T13:48:37.531Z,17.27
2017-11-25T13:51:06.825Z,12.60
2017-11-25T13:53:36.044Z,17.80
2017-11-25T13:56:05.329Z,15.05
2017-11-25T13:58:34.525Z,14.02
2017-11-25T14:01:03.766Z,11.90
2017-11-25T14:03:33.336Z,13.05
2017-11-25T14:06:02.606Z,14.68
2017-11-25T14:08:31.922Z,13.35
2017-11-25T14:11:01.161Z,13.88
2017-11-25T14:13:31.707Z,12.48
2017-11-25T14:16:01.723Z,13.77
2017-11-25T14:18:31.869Z,13.18
2017-11-25T14:21:01.065Z,13.45
2017-11-25T14:23:31.075Z,14.05
2017-11-25T14:26:00.519Z,14.43
2017-11-25T14:28:30.488Z,13.27
2017-11-25T14:30:59.726Z,14.57
2017-11-25T14:33:29.724Z,15.63
2017-11-25T14:35:58.955Z,14.63
2017-11-25T14:38:28.107Z,14.93
2017-11-25T14:40:57.337Z,15.63
2017-11-25T14:43:27.509Z,16.73
2017-11-25T14:45:56.688Z,14.73
2017-11-25T14:48:27.595Z,15.70
2017-11-25T14:50:56.842Z,15.95
2017-11-25T14:53:27.181Z,16.58
2017-11-25T14:55:56.567Z,18.85
2017-11-25T14:58:25.802Z,18.70
2017-11-25T15:00:55.057Z,16.83
2017-11-25T15:03:24.534Z,16.67
2017-11-25T15:05:54.069Z,15.07
2017-11-25T15:08:23.353Z,14.35
2017-11-25T15:10:53.688Z,16.40
2017-11-25T15:13:22.902Z,16.12
2017-11-25T15:15:53.033Z,16.08
2017-11-25T15:18:24.180Z,15.57
2017-11-25T15:20:53.421Z,16.42
2017-11-25T15:23:22.957Z,16.98
2017-11-25T15:25:52.272Z,16.73
2017-11-25T15:28:21.584Z,17.77
2017-11-25T15:30:51.704Z,17.45
2017-11-25T15:33:21.774Z,16.87
2017-11-25T15:35:51.177Z,17.05
2017-11-25T15:38:20.496Z,18.40
2017-11-25T15:40:49.670Z,18.40
2017-11-25T15:43:19.920Z,19.00
2017-11-25T15:45:49.952Z,19.73
2017-11-25T15:48:19.210Z,19.25
2017-11-25T15:50:48.354Z,18.62
2017-11-25T15:53:17.594Z,17.80
2017-11-25T15:55:46.800Z,19.40
2017-11-25T15:58:16.176Z,20.40
2017-11-25T16:00:46.777Z,18.42
2017-11-25T16:03:16.023Z,19.35
2017-11-25T16:05:45.132Z,19.85
2017-11-25T16:08:14.273Z,19.65
2017-11-25T16:10:43.536Z,20.48
2017-11-25T16:13:13.533Z,18.25
2017-11-25T16:15:43.116Z,20.33
2017-11-25T16:18:12.990Z,21.10
2017-11-25T16:20:52.589Z,18.77
2017-11-25T16:23:22.912Z,18.40
2017-11-25T16:25:53.017Z,18.62
2017-11-25T16:28:22.309Z,19.87
2017-11-25T16:30:51.679Z,17.62
2017-11-25T16:33:20.766Z,17.90
2017-11-25T16:35:49.917Z,18.12
2017-11-25T16:38:19.977Z,19.65
2017-11-25T16:40:49.172Z,17.67
2017-11-25T16:43:18.293Z,18.95
2017-11-25T16:45:47.873Z,19.60
2017-11-25T16:48:16.995Z,19.80
2017-11-25T16:50:46.938Z,18.60
2017-11-25T16:53:16.585Z,20.12
2017-11-25T16:55:46.796Z,19.70
2017-11-25T16:58:15.914Z,18.95
2017-11-25T17:00:45.857Z,16.58
2017-11-25T17:03:15.086Z,18.08
2017-11-25T17:05:44.224Z,18.35
2017-11-25T17:08:13.526Z,18.95
2017-11-25T17:10:42.673Z,18.40
2017-11-25T17:13:11.893Z,18.67
2017-11-25T17:15:41.734Z,19.62
2017-11-25T17:18:10.860Z,17.77
2017-11-25T17:20:39.973Z,19.27
2017-11-25T17:23:09.489Z,19.02
2017-11-25T17:25:38.632Z,16.85
2017-11-25T17:28:07.748Z,18.85
2017-11-25T17:30:36.973Z,18.35
2017-11-25T17:33:06.481Z,18.10
2017-11-25T17:35:35.602Z,18.42
2017-11-25T17:38:04.793Z,18.35
2017-11-25T17:40:33.961Z,18.80
2017-11-25T17:43:05.648Z,19.30
2017-11-25T17:45:34.924Z,18.42
2017-11-25T17:48:04.241Z,18.92
2017-11-25T17:50:33.509Z,16.62
2017-11-25T17:53:03.310Z,15.48
2017-11-25T17:55:32.742Z,16.87
2017-11-25T17:58:02.781Z,17.70
2017-11-25T18:00:32.918Z,16.40
2017-11-25T18:03:02.558Z,16.42
2017-11-25T18:05:32.132Z,16.75
2017-11-25T18:08:02.304Z,14.63
2017-11-25T18:10:32.192Z,14.63
2017-11-25T18:13:01.520Z,16.12
2017-11-25T18:15:31.098Z,15.05
2017-11-25T18:18:00.356Z,14.52
2017-11-25T18:20:29.637Z,13.98
2017-11-25T18:22:58.955Z,12.65
2017-11-25T18:25:30.173Z,14.43
2017-11-25T18:27:59.613Z,12.40
2017-11-25T18:30:28.801Z,12.48
2017-11-25T18:32:58.546Z,13.23
2017-11-25T18:35:28.220Z,13.77
2017-11-25T18:37:58.208Z,11.82
2017-11-25T18:40:27.505Z,13.35
2017-11-25T18:42:57.067Z,10.80
2017-11-25T18:45:27.619Z,12.63
2017-11-25T18:47:57.055Z,12.75
2017-11-25T18:50:26.458Z,12.15
2017-11-25T18:52:55.868Z,11.55
2017-11-25T18:55:25.201Z,11.05
2017-11-25T18:57:54.605Z,11.65
2017-11-25T19:00:25.124Z,10.38
2017-11-25T19:02:54.625Z,10.30
2017-11-25T19:05:24.232Z,9.18
2017-11-25T19:07:53.442Z,9.05
2017-11-25T19:10:22.681Z,8.50
2017-11-25T19:12:51.938Z,9.18
2017-11-25T19:15:21.215Z,7.87
2017-11-25T19:17:52.014Z,6.75
2017-11-25T19:20:21.874Z,6.97
2017-11-25T19:22:51.273Z,6.18
2017-11-25T19:25:21.221Z,3.97
2017-11-25T19:27:51.243Z,3.80
2017-11-25T19:30:20.364Z,3.30
2017-11-25T19:32:49.562Z,3.37
2017-11-25T19:35:18.888Z,3.30
2017-11-25T19:37:48.004Z,2.40
2017-11-25T19:40:17.094Z,2.83
2017-11-25T19:42:46.455Z,3.05
2017-11-25T19:45:15.595Z,2.50
2017-11-25T19:47:44.692Z,2.80
2017-11-25T19:50:13.848Z,3.87
2017-11-25T19:52:43.071Z,2.40
2017-11-25T19:55:12.205Z,3.12
2017-11-25T19:57:42.256Z,2.40
2017-11-25T20:00:11.447Z,5.75
2017-11-25T20:02:40.718Z,14.80
2017-11-25T20:05:11.314Z,4.85
2017-11-25T20:07:52.807Z,2.80
2017-11-25T20:10:23.836Z,4.90
2017-11-25T20:12:53.502Z,3.80
2017-11-25T20:15:22.832Z,3.53
2017-11-25T20:17:52.193Z,3.90
2017-11-25T20:20:21.493Z,2.35
2017-11-25T20:22:50.711Z,3.17
2017-11-25T20:25:21.118Z,5.97
2017-11-25T20:27:50.254Z,5.65
2017-11-25T20:30:19.414Z,1.58
2017-11-25T20:32:48.716Z,3.30
2017-11-25T20:35:17.919Z,4.70
2017-11-25T20:37:47.055Z,5.28
2017-11-25T20:40:16.620Z,3.30
2017-11-25T20:42:45.719Z,3.22
2017-11-25T20:45:15.662Z,4.40
2017-11-25T20:47:44.896Z,3.75
2017-11-25T20:50:14.914Z,6.90
2017-11-25T20:52:44.876Z,1.52
2017-11-25T20:55:14.632Z,2.72
2017-11-25T20:57:43.713Z,2.10
2017-11-25T21:00:12.976Z,2.45
2017-11-25T21:02:43.267Z,2.45
2017-11-25T21:05:12.485Z,2.05
2017-11-25T21:07:41.558Z,3.35
2017-11-25T21:10:10.881Z,4.12
2017-11-25T21:12:40.021Z,5.18
2017-11-25T21:15:10.304Z,3.15
2017-11-25T21:17:41.014Z,3.53
2017-11-25T21:20:10.150Z,4.85
2017-11-25T21:22:43.347Z,2.53
2017-11-25T21:25:14.405Z,2.92
2017-11-25T21:27:43.536Z,2.45
2017-11-25T21:30:13.493Z,2.58
2017-11-25T21:32:42.588Z,2.67
2017-11-25T21:35:11.714Z,2.78
2017-11-25T21:37:43.060Z,2.30
2017-11-25T21:40:12.189Z,3.30
2017-11-25T21:42:42.177Z,2.70
2017-11-25T21:45:11.316Z,2.47
2017-11-25T21:47:40.496Z,3.47
2017-11-25T21:50:11.662Z,5.55
2017-11-25T21:52:41.665Z,3.33
2017-11-25T21:55:11.520Z,3.00
2017-11-25T21:57:40.684Z,2.70
2017-11-25T22:00:09.857Z,2.22
2017-11-25T22:02:52.405Z,2.70
2017-11-25T22:05:21.683Z,1.65
2017-11-25T22:07:51.057Z,1.50
2017-11-25T22:10:21.129Z,1.80
2017-11-25T22:12:52.830Z,1.55
2017-11-25T22:15:23.336Z,1.60
2017-11-25T22:17:52.834Z,1.85
2017-11-25T22:20:22.241Z,1.20
2017-11-25T22:22:54.433Z,0.80
2017-11-25T22:25:23.773Z,0.80
2017-11-25T22:27:52.919Z,0.82
2017-11-25T22:30:22.102Z,4.50
2017-11-25T22:32:52.051Z,0.80
2017-11-25T22:35:21.200Z,1.00
2017-11-25T22:37:52.015Z,0.70
2017-11-25T22:40:21.871Z,4.28
2017-11-25T22:42:51.552Z,1.30
2017-11-25T22:45:20.744Z,1.65
2017-11-25T22:47:50.783Z,0.90
2017-11-25T22:50:20.720Z,0.95
2017-11-25T22:52:49.938Z,1.00
2017-11-25T22:55:19.167Z,1.20
2017-11-25T22:57:49.052Z,0.70
2017-11-25T23:00:19.181Z,0.95
2017-11-25T23:02:48.401Z,1.42
2017-11-25T23:05:18.554Z,1.52
2017-11-25T23:07:48.148Z,0.95
2017-11-25T23:10:17.769Z,1.80
2017-11-25T23:12:46.896Z,1.83
2017-11-25T23:15:16.717Z,1.98
2017-11-25T23:17:47.039Z,2.30
2017-11-25T23:20:16.137Z,2.40
2017-11-25T23:22:45.366Z,3.72
2017-11-25T23:25:14.903Z,3.92
2017-11-25T23:27:43.988Z,3.80
2017-11-25T23:30:14.057Z,4.20
2017-11-25T23:32:43.660Z,3.28
2017-11-25T23:35:12.760Z,3.45
2017-11-25T23:37:41.862Z,4.65
2017-11-25T23:40:11.001Z,2.90
2017-11-25T23:42:40.188Z,3.87
2017-11-25T23:45:09.281Z,3.67
2017-11-25T23:47:39.082Z,3.12
2017-11-25T23:50:08.949Z,4.65
2017-11-25T23:52:38.871Z,3.60
2017-11-25T23:55:08.002Z,3.70
2017-11-25T23:57:37.117Z,3.53
